Time;durP1;ratioP1;P1;durP2;ratioP2;P2;SDS_P1;SDS_P2;PMS_P1;PMS_P2;Temp;Humidity;BMP_temperature;BMP_pressure;BME280_temperature;BME280_humidity;BME280_pressure;Samples;Min_cycle;Max_cycle;Signal;HPM_P1;HPM_P2
2022/12/18 00:01:28;;;;;;;64.85;28.30;;;;;;;-144.32;100.00;68061.97;10314674;28;20047;-78
2022/12/18 00:06:31;;;;;;;;;;;;;;;-144.32;100.00;68061.97;10311324;28;20510;-78
2022/12/18 00:11:31;;;;;;;79.15;36.67;;;;;;;-144.32;100.00;68061.97;10314100;28;19925;-78
2022/12/18 00:16:35;;;;;;;94.60;39.67;;;;;;;-144.32;100.00;68061.97;10298080;28;20039;-79
2022/12/18 00:21:35;;;;;;;89.20;40.78;;;;;;;-144.32;100.00;68061.97;10301040;28;20106;-79
2022/12/18 00:26:39;;;;;;;84.72;38.50;;;;;;;-144.32;100.00;68061.97;10298281;28;20046;-78
2022/12/18 00:31:41;;;;;;;83.95;39.35;;;;;;;-144.32;100.00;68061.97;10296410;28;20771;-78
2022/12/18 00:36:42;;;;;;;82.40;35.53;;;;;;;-144.32;100.00;68061.97;10310312;28;20128;-76
2022/12/18 00:47:02;;;;;;;68.07;31.45;;;;;;;-144.32;100.00;68061.97;10306059;28;20039;-77
2022/12/18 00:52:04;;;;;;;67.30;30.95;;;;;;;-144.32;100.00;68061.97;10304479;28;20046;-77
2022/12/18 00:57:05;;;;;;;64.40;29.00;;;;;;;-144.32;100.00;68061.97;10303549;28;20050;-74
2022/12/18 01:02:05;;;;;;;65.50;29.23;;;;;;;-144.32;100.00;68061.97;10304265;28;20050;-74
2022/12/18 01:07:06;;;;;;;60.60;26.70;;;;;;;-144.32;100.00;68061.97;10292619;28;20535;-77
2022/12/18 01:12:09;;;;;;;78.80;37.03;;;;;;;-144.32;100.00;68061.97;10307632;28;20073;-76
2022/12/18 01:17:10;;;;;;;86.05;36.10;;;;;;;-144.32;100.00;68061.97;10323318;28;20313;-75
2022/12/18 01:22:10;;;;;;;71.72;34.90;;;;;;;-144.32;100.00;68061.97;10298845;28;20053;-76
2022/12/18 01:27:12;;;;;;;74.70;35.28;;;;;;;-144.32;100.00;68061.97;10300067;28;20050;-77
2022/12/18 01:32:14;;;;;;;80.50;36.83;;;;;;;-144.32;100.00;68061.97;10302259;28;20046;-76
2022/12/18 01:37:15;;;;;;;79.15;35.40;;;;;;;-144.32;100.00;68061.97;10300922;28;20042;-75
2022/12/18 01:42:16;;;;;;;74.93;35.92;;;;;;;-144.32;100.00;68061.97;10319150;28;20483;-75
2022/12/18 01:47:22;;;;;;;75.15;36.80;;;;;;;-144.32;100.00;68061.97;10298852;28;20051;-75
2022/12/18 01:52:25;;;;;;;79.40;35.50;;;;;;;-144.32;100.00;68061.97;10324477;28;20368;-75
2022/12/18 01:57:27;;;;;;;66.93;31.23;;;;;;;-144.32;100.00;68061.97;10319487;28;20046;-77
2022/12/18 02:02:30;;;;;;;65.45;29.88;;;;;;;-144.32;100.00;68061.97;10328738;28;20381;-81
2022/12/18 02:07:48;;;;;;;62.97;29.95;;;;;;;-144.32;100.00;68061.97;10317346;28;20137;-79
2022/12/18 02:13:01;;;;;;;59.38;29.60;;;;;;;-144.32;100.00;68061.97;10320085;28;20053;-79
2022/12/18 02:18:11;;;;;;;70.20;31.70;;;;;;;-144.32;100.00;68061.97;10305946;28;20499;-75
2022/12/18 02:23:23;;;;;;;60.55;28.10;;;;;;;-144.32;100.00;68061.97;10305836;28;20050;-76
2022/12/18 02:28:30;;;;;;;64.18;27.33;;;;;;;-144.32;100.00;68061.97;10315422;28;20051;-75
2022/12/18 02:33:34;;;;;;;76.93;29.55;;;;;;;-144.32;100.00;68061.97;10295859;28;20035;-77
2022/12/18 02:38:37;;;;;;;67.57;28.80;;;;;;;-144.32;100.00;68061.97;10334335;28;20035;-74
2022/12/18 02:43:53;;;;;;;81.07;31.50;;;;;;;-144.32;100.00;68061.97;10350991;28;20129;-74
2022/12/18 02:49:02;;;;;;;85.22;34.63;;;;;;;-144.32;100.00;68061.97;10354835;28;20050;-74
2022/12/18 02:54:37;;;;;;;94.85;34.55;;;;;;;-144.32;100.00;68061.97;10338100;28;20050;-74
2022/12/18 02:59:55;;;;;;;100.55;34.50;;;;;;;-144.32;100.00;68061.97;10367680;28;20062;-76
2022/12/18 03:05:05;;;;;;;79.95;30.60;;;;;;;-144.32;100.00;68061.97;10361220;28;20098;-73
2022/12/18 03:10:12;;;;;;;92.20;35.80;;;;;;;-144.32;100.00;68061.97;10334706;28;20173;-76
2022/12/18 03:15:16;;;;;;;98.53;34.55;;;;;;;-144.32;100.00;68061.97;10299483;28;20035;-75
2022/12/18 03:20:21;;;;;;;90.03;30.80;;;;;;;-144.32;100.00;68061.97;10307696;28;20109;-79
2022/12/18 03:25:25;;;;;;;75.68;28.60;;;;;;;-144.32;100.00;68061.97;10282754;28;20034;-76
2022/12/18 03:30:31;;;;;;;74.10;29.08;;;;;;;-144.32;100.00;68061.97;10317102;28;20498;-76
2022/12/18 03:35:41;;;;;;;56.17;24.80;;;;;;;-144.32;100.00;68061.97;10298097;28;20043;-76
2022/12/18 03:40:53;;;;;;;70.47;28.05;;;;;;;-144.32;100.00;68061.97;10295222;28;20054;-76
2022/12/18 03:46:04;;;;;;;71.30;27.17;;;;;;;-144.32;100.00;68061.97;10321711;28;20738;-76
2022/12/18 03:51:17;;;;;;;67.57;25.88;;;;;;;-144.32;100.00;68061.97;10312659;28;20129;-77
2022/12/18 03:56:23;;;;;;;51.03;22.95;;;;;;;-144.32;100.00;68061.97;10296587;28;20038;-76
2022/12/18 04:01:34;;;;;;;52.55;21.23;;;;;;;-144.32;100.00;68061.97;10320855;28;20058;-76
2022/12/18 04:06:37;;;;;;;50.05;20.50;;;;;;;-144.32;100.00;68061.97;10318000;28;20046;-75
2022/12/18 04:11:41;;;;;;;47.35;19.88;;;;;;;-144.32;100.00;68061.97;10309353;28;21543;-76
2022/12/18 04:16:42;;;;;;;56.67;21.67;;;;;;;-144.32;100.00;68061.97;10302374;28;20061;-76
2022/12/18 04:21:46;;;;;;;48.60;18.98;;;;;;;-144.32;100.00;68061.97;10300710;28;20125;-77
2022/12/18 04:26:48;;;;;;;49.70;19.00;;;;;;;-144.32;100.00;68061.97;10321590;28;20046;-78
2022/12/18 04:31:52;;;;;;;48.47;19.52;;;;;;;-144.32;100.00;68061.97;10309206;28;20039;-78
2022/12/18 04:36:53;;;;;;;40.45;18.25;;;;;;;-144.32;100.00;68061.97;10316792;28;20034;-77
2022/12/18 04:42:00;;;;;;;44.50;20.10;;;;;;;-144.32;100.00;68061.97;10300931;28;20417;-77
2022/12/18 04:47:02;;;;;;;49.38;19.42;;;;;;;-144.32;100.00;68061.97;10304849;28;20042;-77
2022/12/18 04:52:03;;;;;;;54.78;21.38;;;;;;;-144.32;100.00;68061.97;10311886;28;20039;-76
2022/12/18 04:57:04;;;;;;;51.08;21.35;;;;;;;-144.32;100.00;68061.97;10314418;28;20035;-78
2022/12/18 05:02:05;;;;;;;49.72;18.90;;;;;;;-144.32;100.00;68061.97;10311447;28;20045;-77
2022/12/18 05:07:05;;;;;;;52.28;20.75;;;;;;;-144.32;100.00;68061.97;10318497;28;20113;-77
2022/12/18 05:12:06;;;;;;;51.20;20.67;;;;;;;-144.32;100.00;68061.97;10318508;28;20174;-76
2022/12/18 05:17:06;;;;;;;47.10;19.40;;;;;;;-144.32;100.00;68061.97;10310385;28;20139;-75
2022/12/18 05:22:08;;;;;;;50.33;20.27;;;;;;;-144.32;100.00;68061.97;10307521;28;20574;-76
2022/12/18 05:27:11;;;;;;;48.13;18.98;;;;;;;-144.32;100.00;68061.97;10310869;28;20046;-76
2022/12/18 05:32:11;;;;;;;51.05;19.55;;;;;;;-144.32;100.00;68061.97;10309996;28;20486;-77
2022/12/18 05:37:12;;;;;;;41.35;17.80;;;;;;;-144.32;100.00;68061.97;10291103;28;20402;-76
2022/12/18 05:42:13;;;;;;;48.25;19.90;;;;;;;-144.32;100.00;68061.97;10304292;28;20035;-78
2022/12/18 05:47:14;;;;;;;50.22;20.95;;;;;;;-144.32;100.00;68061.97;10311298;28;20046;-77
2022/12/18 05:52:14;;;;;;;43.80;18.77;;;;;;;-144.32;100.00;68061.97;10308449;28;20043;-78
2022/12/18 05:57:16;;;;;;;43.10;18.52;;;;;;;-144.32;100.00;68061.97;10311698;28;20050;-76
2022/12/18 06:02:20;;;;;;;53.22;19.70;;;;;;;-144.32;100.00;68061.97;10291995;28;20391;-75
2022/12/18 06:07:21;;;;;;;43.90;17.30;;;;;;;-144.32;100.00;68061.97;10343818;28;20078;-78
2022/12/18 06:12:21;;;;;;;42.08;17.65;;;;;;;-144.32;100.00;68061.97;10350371;28;20026;-76
2022/12/18 06:17:22;;;;;;;42.60;18.50;;;;;;;-144.32;100.00;68061.97;10364582;28;20038;-78
2022/12/18 06:22:24;;;;;;;49.20;18.08;;;;;;;-144.32;100.00;68061.97;10348767;28;20027;-77
2022/12/18 06:27:25;;;;;;;44.72;19.67;;;;;;;-144.32;100.00;68061.97;10358905;28;20051;-77
2022/12/18 06:32:27;;;;;;;42.47;16.73;;;;;;;-144.32;100.00;68061.97;10334828;28;20059;-81
2022/12/18 06:37:28;;;;;;;38.17;16.05;;;;;;;-144.32;100.00;68061.97;10335655;28;20577;-76
2022/12/18 06:42:29;;;;;;;39.30;16.17;;;;;;;-144.32;100.00;68061.97;10356096;28;20022;-76
2022/12/18 06:47:29;;;;;;;41.80;16.95;;;;;;;-144.32;100.00;68061.97;10352922;28;20034;-76
2022/12/18 06:52:32;;;;;;;41.50;16.55;;;;;;;-144.32;100.00;68061.97;10353310;28;20082;-77
2022/12/18 06:57:32;;;;;;;45.80;17.20;;;;;;;-144.32;100.00;68061.97;10359302;28;20046;-78
2022/12/18 07:02:33;;;;;;;42.88;16.90;;;;;;;-144.32;100.00;68061.97;10310947;28;20061;-79
2022/12/18 07:07:34;;;;;;;42.97;16.17;;;;;;;-144.32;100.00;68061.97;10319067;28;20057;-77
2022/12/18 07:12:35;;;;;;;41.45;16.15;;;;;;;-144.32;100.00;68061.97;10306411;28;20641;-76
2022/12/18 07:17:36;;;;;;;49.15;17.83;;;;;;;-144.32;100.00;68061.97;10303491;28;20074;-79
2022/12/18 07:22:38;;;;;;;41.63;16.73;;;;;;;-144.32;100.00;68061.97;10315221;28;20125;-80
2022/12/18 07:27:41;;;;;;;44.35;16.48;;;;;;;-144.32;100.00;68061.97;10331234;28;20601;-79
2022/12/18 07:32:42;;;;;;;39.67;16.43;;;;;;;-144.32;100.00;68061.97;10333216;28;20038;-78
2022/12/18 07:37:42;;;;;;;44.00;16.25;;;;;;;-144.32;100.00;68061.97;10326756;28;20034;-78
2022/12/18 07:42:43;;;;;;;47.72;16.30;;;;;;;-144.32;100.00;68061.97;10302692;28;20075;-76
2022/12/18 07:47:44;;;;;;;40.83;16.25;;;;;;;-144.32;100.00;68061.97;10295531;28;20034;-78
2022/12/18 07:52:44;;;;;;;41.17;15.85;;;;;;;-144.32;100.00;68061.97;10303853;28;20045;-80
2022/12/18 07:57:45;;;;;;;42.60;15.18;;;;;;;-144.32;100.00;68061.97;10313266;28;20046;-77
2022/12/18 08:02:45;;;;;;;43.75;15.38;;;;;;;-144.32;100.00;68061.97;10308834;28;20038;-79
2022/12/18 08:07:46;;;;;;;48.80;16.50;;;;;;;-144.32;100.00;68061.97;10313351;28;20046;-78
2022/12/18 08:12:51;;;;;;;38.78;15.40;;;;;;;-144.32;100.00;68061.97;10332638;28;20050;-78
2022/12/18 08:17:51;;;;;;;44.58;16.45;;;;;;;-144.32;100.00;68061.97;10334655;28;20047;-78
2022/12/18 08:22:53;;;;;;;40.45;14.40;;;;;;;-144.32;100.00;68061.97;10343875;28;20042;-80
2022/12/18 08:27:56;;;;;;;42.75;16.15;;;;;;;-144.32;100.00;68061.97;10334130;28;20057;-81
2022/12/18 08:32:57;;;;;;;42.80;17.43;;;;;;;-144.32;100.00;68061.97;10332883;28;20053;-82
2022/12/18 08:38:01;;;;;;;37.53;14.43;;;;;;;-144.32;100.00;68061.97;10339493;28;20038;-81
2022/12/18 08:48:23;;;;;;;41.05;14.95;;;;;;;-144.32;100.00;68061.97;10311004;28;20090;-82
2022/12/18 08:53:25;;;;;;;41.63;15.30;;;;;;;-144.32;100.00;68061.97;10333644;28;20031;-79
2022/12/18 08:58:25;;;;;;;35.33;14.43;;;;;;;-144.32;100.00;68061.97;10327163;28;20038;-82
2022/12/18 09:03:26;;;;;;;37.47;14.35;;;;;;;-144.32;100.00;68061.97;10324253;28;20055;-83
2022/12/18 09:08:27;;;;;;;38.95;16.40;;;;;;;-144.32;100.00;68061.97;10338516;28;20035;-84
2022/12/18 09:13:29;;;;;;;40.15;14.30;;;;;;;-144.32;100.00;68061.97;10349889;28;20019;-81
2022/12/18 09:18:30;;;;;;;30.83;13.33;;;;;;;-144.32;100.00;68061.97;10328698;28;20138;-82
2022/12/18 09:23:31;;;;;;;36.63;14.70;;;;;;;-144.32;100.00;68061.97;10326687;28;20062;-83
2022/12/18 09:28:32;;;;;;;35.67;14.32;;;;;;;-144.32;100.00;68061.97;10325982;28;20127;-80
2022/12/18 09:33:33;;;;;;;33.45;13.73;;;;;;;-144.32;100.00;68061.97;10340496;28;20449;-80
2022/12/18 09:38:35;;;;;;;37.13;15.38;;;;;;;-144.32;100.00;68061.97;10358318;28;20632;-78
2022/12/18 09:43:41;;;;;;;33.83;14.85;;;;;;;-144.32;100.00;68061.97;10338532;28;20046;-79
2022/12/18 09:48:47;;;;;;;33.25;13.98;;;;;;;-144.32;100.00;68061.97;10328396;28;20137;-79
2022/12/18 09:53:55;;;;;;;35.50;13.45;;;;;;;-144.32;100.00;68061.97;10345088;28;20046;-80
2022/12/18 09:59:02;;;;;;;31.30;14.07;;;;;;;-144.32;100.00;68061.97;10311247;28;20039;-80
2022/12/18 10:04:08;;;;;;;40.25;15.00;;;;;;;-144.32;100.00;68061.97;10323530;28;20047;-84
2022/12/18 10:09:33;;;;;;;31.92;12.73;;;;;;;-144.32;100.00;68061.97;10316369;28;20051;-81
2022/12/18 10:14:55;;;;;;;32.28;14.07;;;;;;;-144.32;100.00;68061.97;10309803;28;20133;-83
2022/12/18 10:20:16;;;;;;;34.17;14.30;;;;;;;-144.32;100.00;68061.97;10306197;28;20046;-79
2022/12/18 10:25:38;;;;;;;31.48;13.32;;;;;;;-144.32;100.00;68061.97;10312315;28;20043;-80
2022/12/18 10:30:40;;;;;;;30.55;14.32;;;;;;;-144.32;100.00;68061.97;10308259;28;20043;-79
2022/12/18 10:35:42;;;;;;;28.27;12.98;;;;;;;-144.32;100.00;68061.97;10300511;28;20050;-79
2022/12/18 10:41:08;;;;;;;33.63;13.63;;;;;;;-144.32;100.00;68061.97;10283559;28;20445;-79
2022/12/18 10:46:14;;;;;;;24.88;12.30;;;;;;;-144.32;100.00;68061.97;10323271;28;20039;-81
2022/12/18 10:51:33;;;;;;;28.45;12.57;;;;;;;-144.32;100.00;68061.97;10310542;28;20880;-80
2022/12/18 10:56:36;;;;;;;30.33;12.45;;;;;;;-144.32;100.00;68061.97;10299828;28;20043;-80
2022/12/18 11:01:50;;;;;;;31.00;13.20;;;;;;;-144.32;100.00;68061.97;10308588;28;20482;-80
2022/12/18 11:07:03;;;;;;;31.17;13.23;;;;;;;-144.32;100.00;68061.97;10326397;28;20055;-82
2022/12/18 11:12:24;;;;;;;27.63;11.35;;;;;;;-144.32;100.00;68061.97;10313494;28;20122;-81
2022/12/18 11:17:28;;;;;;;27.23;12.52;;;;;;;-144.32;100.00;68061.97;10317411;28;20057;-83
2022/12/18 11:22:32;;;;;;;29.20;12.52;;;;;;;-144.32;100.00;68061.97;10345317;28;20321;-82
2022/12/18 11:27:33;;;;;;;27.17;11.77;;;;;;;-144.32;100.00;68061.97;10317336;28;20047;-82
2022/12/18 11:32:38;;;;;;;23.00;12.18;;;;;;;-144.32;100.00;68061.97;10329818;28;20106;-83
2022/12/18 11:37:46;;;;;;;26.25;12.65;;;;;;;-144.32;100.00;68061.97;10304111;28;20046;-82
2022/12/18 11:42:59;;;;;;;29.38;13.40;;;;;;;-144.32;100.00;68061.97;10299988;28;20070;-80
2022/12/18 11:48:16;;;;;;;30.30;12.32;;;;;;;-144.32;100.00;68061.97;10302178;28;20071;-79
2022/12/18 11:53:18;;;;;;;30.08;12.73;;;;;;;-144.32;100.00;68061.97;10328590;28;20046;-79
2022/12/18 11:59:02;;;;;;;25.08;12.48;;;;;;;-144.32;100.00;68061.97;10313167;28;20050;-80
2022/12/18 12:04:30;;;;;;;29.98;14.00;;;;;;;-144.32;100.00;68061.97;10306657;28;20042;-81
2022/12/18 12:09:39;;;;;;;30.75;14.23;;;;;;;-144.32;100.00;68061.97;10339689;28;20037;-78
2022/12/18 12:14:48;;;;;;;30.38;13.68;;;;;;;-144.32;100.00;68061.97;10355646;28;20580;-79
2022/12/18 12:19:49;;;;;;;32.78;13.40;;;;;;;-144.32;100.00;68061.97;10342632;28;20110;-80
2022/12/18 12:25:11;;;;;;;34.17;14.93;;;;;;;-144.32;100.00;68061.97;10322861;28;20517;-81
2022/12/18 12:30:21;;;;;;;32.00;14.25;;;;;;;-144.32;100.00;68061.97;10311186;28;20043;-80
2022/12/18 12:35:27;;;;;;;34.00;14.15;;;;;;;-144.32;100.00;68061.97;10327053;28;20043;-81
2022/12/18 12:40:33;;;;;;;32.88;13.48;;;;;;;-144.32;100.00;68061.97;10348597;28;20077;-79
2022/12/18 12:45:51;;;;;;;35.58;15.02;;;;;;;-144.32;100.00;68061.97;10327070;28;20050;-79
2022/12/18 12:50:56;;;;;;;29.90;13.73;;;;;;;-144.32;100.00;68061.97;10324129;28;20042;-82
2022/12/18 12:55:58;;;;;;;30.33;13.25;;;;;;;-144.32;100.00;68061.97;10327851;28;20046;-82
2022/12/18 13:01:09;;;;;;;30.92;13.40;;;;;;;-144.32;100.00;68061.97;10332683;28;20046;-82
2022/12/18 13:06:24;;;;;;;30.52;14.18;;;;;;;-144.32;100.00;68061.97;10332965;28;20508;-81
2022/12/18 13:17:29;;;;;;;29.17;13.75;;;;;;;-144.32;100.00;68061.97;10308933;28;20050;-82
2022/12/18 13:22:45;;;;;;;33.92;14.23;;;;;;;-144.32;100.00;68061.97;10307584;28;20066;-79
2022/12/18 13:28:00;;;;;;;29.65;15.25;;;;;;;-144.32;100.00;68061.97;10320560;28;20561;-80
2022/12/18 13:33:22;;;;;;;29.23;13.32;;;;;;;-144.32;100.00;68061.97;10298199;28;20042;-81
2022/12/18 13:38:32;;;;;;;28.23;13.68;;;;;;;-144.32;100.00;68061.97;10296401;28;20081;-81
2022/12/18 13:43:45;;;;;;;35.17;14.38;;;;;;;-144.32;100.00;68061.97;10327725;28;20073;-79
2022/12/18 13:49:32;;;;;;;26.95;12.80;;;;;;;-144.32;100.00;68061.97;10320264;28;20065;-79
2022/12/18 13:54:39;;;;;;;30.35;12.38;;;;;;;-144.32;100.00;68061.97;10238615;28;20547;-80
2022/12/18 13:59:40;;;;;;;28.45;13.35;;;;;;;-144.32;100.00;68061.97;10317946;28;20047;-79
2022/12/18 14:04:41;;;;;;;26.20;12.57;;;;;;;-144.32;100.00;68061.97;10328830;28;20478;-81
2022/12/18 14:09:46;;;;;;;27.42;13.00;;;;;;;-144.32;100.00;68061.97;10325007;28;20058;-82
2022/12/18 14:14:53;;;;;;;25.67;12.68;;;;;;;-144.32;100.00;68061.97;10304477;28;20845;-82
2022/12/18 14:19:54;;;;;;;24.48;12.13;;;;;;;-144.32;100.00;68061.97;10291810;28;20054;-81
2022/12/18 14:25:14;;;;;;;25.63;12.43;;;;;;;-144.32;100.00;68061.97;10322812;28;20042;-81
2022/12/18 14:30:39;;;;;;;23.70;11.77;;;;;;;-144.32;100.00;68061.97;10341531;28;20045;-81
2022/12/18 14:35:52;;;;;;;24.33;11.75;;;;;;;-144.32;100.00;68061.97;10358415;28;20043;-82
2022/12/18 14:40:59;;;;;;;26.45;12.15;;;;;;;-144.32;100.00;68061.97;10343662;28;20031;-82
2022/12/18 14:46:02;;;;;;;23.58;12.02;;;;;;;-144.32;100.00;68061.97;10339486;28;20051;-81
2022/12/18 14:51:19;;;;;;;25.10;12.70;;;;;;;-144.32;100.00;68061.97;10928404;23;20234;-82
2022/12/18 14:56:34;;;;;;;25.90;12.75;;;;;;;-144.32;100.00;68061.97;10571336;23;20104;-82
2022/12/18 15:01:45;;;;;;;25.88;12.70;;;;;;;-144.32;100.00;68061.97;10378921;28;20045;-83
2022/12/18 15:06:48;;;;;;;27.35;13.15;;;;;;;-144.32;100.00;68061.97;10346042;28;20030;-82
2022/12/18 15:11:54;;;;;;;22.88;12.32;;;;;;;-144.32;100.00;68061.97;10355149;28;20035;-81
2022/12/18 15:16:56;;;;;;;25.20;11.82;;;;;;;-144.32;100.00;68061.97;10340446;28;20102;-82
2022/12/18 15:22:01;;;;;;;23.13;12.45;;;;;;;-144.32;100.00;68061.97;10344155;28;20058;-81
2022/12/18 15:27:02;;;;;;;34.08;13.57;;;;;;;-144.32;100.00;68061.97;10317469;28;20023;-80
2022/12/18 15:32:17;;;;;;;31.73;13.60;;;;;;;-144.32;100.00;68061.97;10349402;28;20065;-84
2022/12/18 15:48:21;;;;;;;36.42;14.60;;;;;;;-144.32;100.00;68061.97;10356535;28;20030;-80
2022/12/18 15:53:24;;;;;;;33.05;14.43;;;;;;;-144.32;100.00;68061.97;10350293;28;20050;-83
2022/12/18 15:58:25;;;;;;;32.03;14.65;;;;;;;-144.32;100.00;68061.97;10351500;28;20098;-82
2022/12/18 16:03:25;;;;;;;26.38;12.30;;;;;;;-144.32;100.00;68061.97;10416205;23;20053;-83
2022/12/18 16:08:30;;;;;;;34.90;14.90;;;;;;;-144.32;100.00;68061.97;10351852;28;20046;-82
2022/12/18 16:13:30;;;;;;;28.55;13.93;;;;;;;-144.32;100.00;68061.97;10361334;28;20053;-82
2022/12/18 16:18:34;;;;;;;25.33;12.63;;;;;;;-144.32;100.00;68061.97;10457401;23;20039;-79
2022/12/18 16:23:39;;;;;;;27.60;13.40;;;;;;;-144.32;100.00;68061.97;10398980;23;20066;-84
2022/12/18 16:28:39;;;;;;;33.42;15.70;;;;;;;-144.32;100.00;68061.97;10340741;28;20039;-81
2022/12/18 16:33:40;;;;;;;34.15;15.45;;;;;;;-144.32;100.00;68061.97;10351989;28;20046;-81
2022/12/18 16:38:44;;;;;;;33.38;14.93;;;;;;;-144.32;100.00;68061.97;10359985;28;20041;-82
2022/12/18 16:43:46;;;;;;;35.92;15.07;;;;;;;-144.32;100.00;68061.97;10371653;28;20073;-81
2022/12/18 16:48:47;;;;;;;40.28;16.50;;;;;;;-144.32;100.00;68061.97;10364024;28;20027;-84
2022/12/18 16:53:48;;;;;;;36.35;15.93;;;;;;;-144.32;100.00;68061.97;10361115;28;20042;-81
2022/12/18 16:58:57;;;;;;;35.28;17.58;;;;;;;-144.32;100.00;68061.97;10380761;28;20074;-80
2022/12/18 17:04:04;;;;;;;37.50;16.40;;;;;;;-144.32;100.00;68061.97;10374378;28;20031;-83
2022/12/18 17:09:08;;;;;;;41.83;17.63;;;;;;;-144.32;100.00;68061.97;10351934;28;20034;-81
2022/12/18 17:14:13;;;;;;;40.85;18.05;;;;;;;-144.32;100.00;68061.97;10539921;23;20371;-79
2022/12/18 17:19:15;;;;;;;39.22;16.67;;;;;;;-144.32;100.00;68061.97;10325813;28;20051;-82
2022/12/18 17:24:18;;;;;;;41.67;18.60;;;;;;;-144.32;100.00;68061.97;10313353;28;20046;-83
2022/12/18 17:29:20;;;;;;;32.33;16.80;;;;;;;-144.32;100.00;68061.97;10310104;28;20038;-82
2022/12/18 17:34:20;;;;;;;35.10;16.35;;;;;;;-144.32;100.00;68061.97;10308524;28;20110;-81
2022/12/18 17:39:23;;;;;;;35.05;15.98;;;;;;;-144.32;100.00;68061.97;10307628;28;20085;-83
2022/12/18 17:44:23;;;;;;;41.28;16.50;;;;;;;-144.32;100.00;68061.97;10309884;28;20071;-82
2022/12/18 17:49:25;;;;;;;39.22;17.08;;;;;;;-144.32;100.00;68061.97;10305898;28;20079;-79
2022/12/18 17:54:26;;;;;;;39.47;16.80;;;;;;;-144.32;100.00;68061.97;10315002;28;20114;-81
2022/12/18 17:59:26;;;;;;;38.72;17.15;;;;;;;-144.32;100.00;68061.97;10379584;23;20060;-82
2022/12/18 18:04:27;;;;;;;42.33;17.25;;;;;;;-144.32;100.00;68061.97;10611305;23;20323;-80
2022/12/18 18:09:27;;;;;;;39.72;18.00;;;;;;;-144.32;100.00;68061.97;10313134;28;20070;-82
2022/12/18 18:14:31;;;;;;;38.35;17.05;;;;;;;-144.32;100.00;68061.97;10331677;28;20192;-81
2022/12/18 18:19:33;;;;;;;42.10;18.50;;;;;;;-144.32;100.00;68061.97;10329055;28;20049;-81
2022/12/18 18:24:51;;;;;;;37.25;16.52;;;;;;;-144.32;100.00;68061.97;10365164;28;20047;-80
2022/12/18 18:29:57;;;;;;;41.23;17.87;;;;;;;-144.32;100.00;68061.97;10365522;28;20061;-81
2022/12/18 18:34:57;;;;;;;39.83;18.08;;;;;;;-144.32;100.00;68061.97;10362231;28;20030;-82
2022/12/18 18:40:03;;;;;;;37.75;18.25;;;;;;;-144.32;100.00;68061.97;10348342;28;20042;-80
2022/12/18 18:45:04;;;;;;;41.08;18.70;;;;;;;-144.32;100.00;68061.97;10363724;28;20078;-81
2022/12/18 18:50:07;;;;;;;37.83;17.20;;;;;;;-144.32;100.00;68061.97;10360932;28;20050;-81
2022/12/18 18:55:08;;;;;;;38.25;18.98;;;;;;;-144.32;100.00;68061.97;10348493;28;20066;-83
2022/12/18 19:00:09;;;;;;;35.47;16.25;;;;;;;-144.32;100.00;68061.97;10332716;28;20065;-81
2022/12/18 19:05:11;;;;;;;37.53;17.08;;;;;;;-144.32;100.00;68061.97;10331129;28;20046;-80
2022/12/18 19:10:11;;;;;;;41.03;18.25;;;;;;;-144.32;100.00;68061.97;10346616;28;20042;-79
2022/12/18 19:15:12;;;;;;;36.75;16.92;;;;;;;-144.32;100.00;68061.97;10359051;28;20053;-80
2022/12/18 19:20:14;;;;;;;40.72;17.80;;;;;;;-144.32;100.00;68061.97;10345243;28;20042;-78
2022/12/18 19:25:20;;;;;;;37.47;16.67;;;;;;;-144.32;100.00;68061.97;10359220;28;20042;-83
2022/12/18 19:30:22;;;;;;;41.10;17.02;;;;;;;-144.32;100.00;68061.97;10332160;28;20050;-81
2022/12/18 19:35:28;;;;;;;35.72;16.00;;;;;;;-144.32;100.00;68061.97;10345430;28;20034;-80
2022/12/18 19:40:28;;;;;;;39.63;16.77;;;;;;;-144.32;100.00;68061.97;10334880;28;20225;-82
2022/12/18 19:45:29;;;;;;;37.92;17.08;;;;;;;-144.32;100.00;68061.97;10342228;28;20049;-82
2022/12/18 19:50:31;;;;;;;35.03;16.88;;;;;;;-144.32;100.00;68061.97;10329346;28;20038;-82
2022/12/18 19:55:42;;;;;;;34.83;16.43;;;;;;;-144.32;100.00;68061.97;10316742;28;20066;-80
2022/12/18 20:00:43;;;;;;;35.13;16.67;;;;;;;-144.32;100.00;68061.97;10334523;28;20301;-80
2022/12/18 20:05:44;;;;;;;33.00;15.68;;;;;;;-144.32;100.00;68061.97;10340831;28;20046;-80
2022/12/18 20:10:47;;;;;;;35.03;16.85;;;;;;;-144.32;100.00;68061.97;10323865;28;20050;-81
2022/12/18 20:15:51;;;;;;;34.75;16.63;;;;;;;-144.32;100.00;68061.97;10343090;28;20545;-82
2022/12/18 20:20:51;;;;;;;35.83;16.45;;;;;;;-144.32;100.00;68061.97;10338151;28;20141;-82
2022/12/18 20:25:53;;;;;;;32.42;16.73;;;;;;;-144.32;100.00;68061.97;10334401;28;20619;-80
2022/12/18 20:31:02;;;;;;;30.35;15.55;;;;;;;-144.32;100.00;68061.97;10350648;28;20041;-82
2022/12/18 20:36:10;;;;;;;38.60;17.73;;;;;;;-144.32;100.00;68061.97;10369699;28;20031;-81
2022/12/18 20:41:16;;;;;;;35.85;17.10;;;;;;;-144.32;100.00;68061.97;10350823;28;20081;-81
2022/12/18 20:46:17;;;;;;;33.17;16.40;;;;;;;-144.32;100.00;68061.97;10337236;28;20023;-80
2022/12/18 20:51:19;;;;;;;34.22;16.08;;;;;;;-144.32;100.00;68061.97;10356010;28;20041;-81
2022/12/18 20:56:22;;;;;;;31.75;16.27;;;;;;;-144.32;100.00;68061.97;10340286;28;20053;-82
2022/12/18 21:01:24;;;;;;;33.87;15.87;;;;;;;-144.32;100.00;68061.97;10336462;28;20034;-80
2022/12/18 21:06:26;;;;;;;31.92;15.52;;;;;;;-144.32;100.00;68061.97;10335638;28;20306;-79
2022/12/18 21:16:55;;;;;;;35.45;16.25;;;;;;;-144.32;100.00;68061.97;10330575;28;20068;-82
2022/12/18 21:21:57;;;;;;;31.83;16.33;;;;;;;-144.32;100.00;68061.97;10330242;28;20038;-80
2022/12/18 21:27:01;;;;;;;34.10;15.60;;;;;;;-144.32;100.00;68061.97;10330042;28;20042;-80
2022/12/18 21:32:04;;;;;;;31.55;16.25;;;;;;;-144.32;100.00;68061.97;10339421;28;20077;-83
2022/12/18 21:37:05;;;;;;;36.55;16.35;;;;;;;-144.32;100.00;68061.97;10321638;28;20435;-80
2022/12/18 21:47:29;;;;;;;31.88;16.58;;;;;;;-144.32;100.00;68061.97;10340828;28;20462;-80
2022/12/18 21:52:29;;;;;;;39.78;16.92;;;;;;;-144.32;100.00;68061.97;10346739;28;20042;-82
2022/12/18 21:57:30;;;;;;;34.97;17.83;;;;;;;-144.32;100.00;68061.97;10316676;28;20101;-83
2022/12/18 22:02:31;;;;;;;39.55;17.20;;;;;;;-144.32;100.00;68061.97;10340200;28;20046;-81
2022/12/18 22:07:31;;;;;;;36.30;16.63;;;;;;;-144.32;100.00;68061.97;10365982;28;20061;-80
2022/12/18 22:12:35;;;;;;;35.45;18.25;;;;;;;-144.32;100.00;68061.97;10349710;28;20043;-81
2022/12/18 22:17:36;;;;;;;36.30;17.42;;;;;;;-144.32;100.00;68061.97;10342379;28;20047;-81
2022/12/18 22:22:37;;;;;;;38.05;17.88;;;;;;;-144.32;100.00;68061.97;10348307;28;20043;-80
2022/12/18 22:27:37;;;;;;;36.60;16.55;;;;;;;-144.32;100.00;68061.97;10323676;28;20042;-82
2022/12/18 22:32:39;;;;;;;31.60;16.83;;;;;;;-144.32;100.00;68061.97;10331059;28;20042;-80
2022/12/18 22:37:43;;;;;;;31.77;16.48;;;;;;;-144.32;100.00;68061.97;10355068;28;20030;-81
2022/12/18 22:42:43;;;;;;;33.53;16.23;;;;;;;-144.32;100.00;68061.97;10353741;28;20050;-80
2022/12/18 22:47:44;;;;;;;36.75;18.80;;;;;;;-144.32;100.00;68061.97;10350266;28;20337;-81
2022/12/18 22:52:44;;;;;;;34.15;17.80;;;;;;;-144.32;100.00;68061.97;10345103;28;20417;-81
2022/12/18 22:57:45;;;;;;;38.30;17.77;;;;;;;-144.32;100.00;68061.97;10356985;28;20056;-80